createdAt,value
2017-06-23T14:16:53.187Z,17376
2017-06-23T14:18:15.085Z,17440
2017-06-23T14:19:36.669Z,17472
2017-06-23T14:20:59.190Z,17120
2017-06-23T14:22:21.923Z,16704
2017-06-23T14:23:43.806Z,15932
2017-06-23T14:25:05.966Z,15548
2017-06-23T14:26:27.856Z,15584
2017-06-23T14:27:50.030Z,15780
2017-06-23T14:29:12.254Z,15936
2017-06-23T14:30:34.827Z,16672
2017-06-23T14:31:57.112Z,17536
2017-06-23T14:33:19.925Z,17664
2017-06-23T14:34:42.097Z,18144
2017-06-23T14:36:04.258Z,19328
2017-06-23T14:37:26.424Z,19520
2017-06-23T14:38:48.916Z,18240
2017-06-23T14:40:11.070Z,17856
2017-06-23T14:41:32.904Z,18368
2017-06-23T14:42:54.424Z,17856
2017-06-23T14:44:16.931Z,16736
2017-06-23T14:45:39.166Z,15432
2017-06-23T14:47:01.022Z,14960
2017-06-23T14:48:23.605Z,16288
2017-06-23T14:49:46.008Z,18272
2017-06-23T14:51:07.562Z,19488
2017-06-23T14:52:29.846Z,19552
2017-06-23T14:53:52.136Z,18784
2017-06-23T14:55:14.919Z,16704
2017-06-23T14:56:36.317Z,14564
2017-06-23T14:57:58.805Z,13904
2017-06-23T14:59:21.414Z,13464
2017-06-23T15:00:43.582Z,13192
2017-06-23T15:02:06.274Z,13112
2017-06-23T15:03:28.879Z,12452
2017-06-23T15:04:51.370Z,11236
2017-06-23T15:06:14.122Z,10328
2017-06-23T15:07:36.589Z,9984
2017-06-23T15:08:58.235Z,10496
2017-06-23T15:10:20.221Z,11224
2017-06-23T15:11:42.992Z,11072
2017-06-23T15:13:05.480Z,10536
2017-06-23T15:14:28.085Z,10764
2017-06-23T15:15:50.558Z,11644
2017-06-23T15:17:12.674Z,12068
2017-06-23T15:18:35.202Z,12304
2017-06-23T15:19:57.378Z,12596
2017-06-23T15:21:19.872Z,12524
2017-06-23T15:22:42.394Z,11992
2017-06-23T15:24:04.537Z,11216
2017-06-23T15:25:26.383Z,10516
2017-06-23T15:26:48.932Z,10192
2017-06-23T15:28:11.642Z,10468
2017-06-23T15:29:33.462Z,10976
2017-06-23T15:30:55.655Z,11812
2017-06-23T15:32:17.874Z,12440
2017-06-23T15:33:39.988Z,12792
2017-06-23T15:35:01.817Z,12428
2017-06-23T15:36:23.978Z,12196
2017-06-23T15:37:46.104Z,12336
2017-06-23T15:39:08.998Z,12792
2017-06-23T15:40:31.469Z,13644
2017-06-23T15:41:52.732Z,14416
2017-06-23T15:43:14.606Z,14596
2017-06-23T15:44:36.912Z,14076
2017-06-23T15:45:59.147Z,13156
2017-06-23T15:47:21.332Z,12372
2017-06-23T15:48:43.488Z,11808
2017-06-23T15:50:05.643Z,11012
2017-06-23T15:51:27.827Z,10744
2017-06-23T15:52:50.295Z,11588
2017-06-23T15:54:12.841Z,12948
2017-06-23T15:55:35.671Z,14092
2017-06-23T15:56:57.588Z,14340
2017-06-23T15:58:20.060Z,13824
2017-06-23T15:59:41.640Z,12840
2017-06-23T16:01:03.701Z,11392
2017-06-23T16:02:26.202Z,10884
2017-06-23T16:03:48.392Z,10824
2017-06-23T16:05:10.220Z,10052
2017-06-23T16:06:32.464Z,10140
2017-06-23T16:07:54.613Z,10856
2017-06-23T16:09:17.158Z,10724
2017-06-23T16:10:39.311Z,11052
2017-06-23T16:12:01.406Z,11120
2017-06-23T16:13:22.921Z,10488
2017-06-23T16:14:45.068Z,11012
2017-06-23T16:16:07.518Z,11864
2017-06-23T16:17:30.092Z,11580
2017-06-23T16:18:52.234Z,11636
2017-06-23T16:20:14.140Z,11444
2017-06-23T16:21:36.596Z,11488
2017-06-23T16:22:59.164Z,12120
2017-06-23T16:24:21.618Z,12260
2017-06-23T16:25:44.102Z,11520
2017-06-23T16:27:06.569Z,10412
2017-06-23T16:28:29.413Z,9200
2017-06-23T16:29:51.912Z,8044
2017-06-23T16:31:14.073Z,7804
2017-06-23T16:32:36.560Z,7776
2017-06-23T16:33:59.411Z,7376
2017-06-23T16:35:21.946Z,7260
2017-06-23T16:36:44.142Z,8596
2017-06-23T16:38:06.354Z,9284
2017-06-23T16:39:28.855Z,8620
2017-06-23T16:40:51.461Z,8268
2017-06-23T16:42:13.927Z,8024
2017-06-23T16:43:36.374Z,8576
2017-06-23T16:44:58.921Z,8912
2017-06-23T16:46:21.373Z,8588
2017-06-23T16:47:43.540Z,8544
2017-06-23T16:49:05.736Z,8660
2017-06-23T16:50:27.825Z,8724
2017-06-23T16:51:49.346Z,8520
2017-06-23T16:53:10.863Z,7588
2017-06-23T16:54:32.704Z,6200
2017-06-23T16:55:55.173Z,5304
2017-06-23T16:57:17.386Z,4952
2017-06-23T16:58:39.863Z,4660
2017-06-23T17:00:02.138Z,4992
2017-06-23T17:01:24.642Z,6128
2017-06-23T17:02:46.570Z,7340
2017-06-23T17:04:08.497Z,8152
2017-06-23T17:05:30.344Z,8116
2017-06-23T17:06:52.830Z,7408
2017-06-23T17:08:15.296Z,7076
2017-06-23T17:09:37.801Z,7272
2017-06-23T17:10:59.732Z,7420
2017-06-23T17:12:41.648Z,6504
2017-06-23T17:14:03.469Z,5304
2017-06-23T17:15:25.367Z,4356
2017-06-23T17:16:47.843Z,3612
2017-06-23T17:18:10.021Z,3004
2017-06-23T17:19:32.576Z,2904
2017-06-23T17:20:54.824Z,3592
2017-06-23T17:22:17.296Z,4920
2017-06-23T17:23:40.106Z,6148
2017-06-23T17:25:01.997Z,6688
2017-06-23T17:26:23.535Z,6276
2017-06-23T17:27:46.003Z,5452
2017-06-23T17:29:08.194Z,4736
2017-06-23T17:30:30.654Z,4188
2017-06-23T17:31:52.789Z,3916
2017-06-23T17:33:14.924Z,4312
2017-06-23T17:34:37.639Z,4964
2017-06-23T17:35:59.820Z,5068
2017-06-23T17:37:21.965Z,5068
2017-06-23T17:38:43.886Z,6368
2017-06-23T17:40:06.383Z,5400
2017-06-23T17:41:28.648Z,3776
2017-06-23T17:42:50.495Z,2604
2017-06-23T17:44:12.325Z,2812
2017-06-23T17:45:34.614Z,2372
2017-06-23T17:46:56.823Z,1440
2017-06-23T17:48:18.959Z,1212
2017-06-23T17:49:41.522Z,1052
2017-06-23T17:51:03.918Z,916
2017-06-23T17:52:26.420Z,664
2017-06-23T17:53:48.904Z,584
2017-06-23T17:55:10.725Z,604
2017-06-23T17:56:33.142Z,872
2017-06-23T17:57:55.641Z,956
2017-06-23T17:59:18.106Z,660
2017-06-23T18:00:39.643Z,628
2017-06-23T18:02:01.756Z,968
2017-06-23T18:03:23.423Z,1028
2017-06-23T18:04:45.900Z,856
2017-06-23T18:06:08.269Z,616
2017-06-23T18:07:31.115Z,464
2017-06-23T18:08:53.254Z,372
2017-06-23T18:10:15.773Z,408
2017-06-23T18:11:37.977Z,504
2017-06-23T18:13:00.463Z,692
2017-06-23T18:14:22.441Z,608
2017-06-23T18:15:44.925Z,696
2017-06-23T18:17:07.202Z,996
2017-06-23T18:18:29.396Z,872
2017-06-23T18:19:51.923Z,756
2017-06-23T18:21:13.460Z,1268
2017-06-23T18:22:35.963Z,1860
2017-06-23T18:23:57.833Z,1764
2017-06-23T18:25:19.413Z,2164
2017-06-23T18:26:41.263Z,2136
2017-06-23T18:28:03.125Z,1924
2017-06-23T18:29:25.623Z,1604
2017-06-23T18:30:47.788Z,1264
2017-06-23T18:32:10.258Z,1136
2017-06-23T18:33:32.339Z,896
2017-06-23T18:34:55.112Z,996
2017-06-23T18:36:17.604Z,1276
2017-06-23T18:37:39.935Z,1448
2017-06-23T18:39:02.114Z,1600
2017-06-23T18:40:24.850Z,1672
2017-06-23T18:41:47.025Z,1772
2017-06-23T18:43:09.200Z,1740
2017-06-23T18:44:31.386Z,1500
2017-06-23T18:45:53.927Z,1292
2017-06-23T18:47:15.917Z,1332
2017-06-23T18:48:38.397Z,1324
2017-06-23T18:50:01.060Z,1300
2017-06-23T18:51:23.793Z,1232
2017-06-23T18:52:46.286Z,1052
2017-06-23T18:54:08.479Z,860
2017-06-23T18:55:30.994Z,728
2017-06-23T18:56:53.819Z,692
2017-06-23T18:58:16.053Z,628
2017-06-23T18:59:38.536Z,404
2017-06-23T19:01:00.786Z,312
2017-06-23T19:02:23.574Z,336
2017-06-23T19:03:45.755Z,300
2017-06-23T19:05:08.287Z,340
2017-06-23T19:06:29.866Z,384
2017-06-23T19:07:52.436Z,460
2017-06-23T19:09:14.941Z,512
2017-06-23T19:10:36.807Z,532
2017-06-23T19:11:58.987Z,484
2017-06-23T19:13:21.988Z,436
2017-06-23T19:14:44.489Z,536
2017-06-23T19:16:07.034Z,540
2017-06-23T19:17:29.225Z,492
2017-06-23T19:18:52.067Z,436
2017-06-23T19:20:14.564Z,404
2017-06-23T19:21:36.742Z,376
2017-06-23T19:22:59.279Z,300
2017-06-23T19:24:22.012Z,236
2017-06-23T19:25:43.642Z,228
2017-06-23T19:27:06.152Z,220
2017-06-23T19:28:28.737Z,208
2017-06-23T19:29:51.448Z,208
2017-06-23T19:31:14.029Z,204
2017-06-23T19:32:36.556Z,212
2017-06-23T19:33:58.716Z,236
2017-06-23T19:35:21.245Z,248
2017-06-23T19:36:43.705Z,216
2017-06-23T19:38:05.979Z,176
2017-06-23T19:39:28.475Z,144
2017-06-23T19:40:51.247Z,124
2017-06-23T19:42:13.408Z,116
2017-06-23T19:43:35.918Z,104
2017-06-23T19:44:58.185Z,92
2017-06-23T19:46:20.728Z,88
2017-06-23T19:47:43.237Z,88
2017-06-23T19:49:05.481Z,84
2017-06-23T19:50:27.656Z,76
2017-06-23T19:51:50.496Z,68
2017-06-23T19:53:12.805Z,68
2017-06-23T19:54:35.000Z,60
2017-06-23T19:55:57.550Z,56
2017-06-23T19:57:20.076Z,52
2017-06-23T19:58:42.019Z,48
2017-06-23T20:00:04.597Z,40
2017-06-23T20:01:26.756Z,40
2017-06-23T20:02:49.560Z,32
2017-06-23T20:04:11.863Z,32
2017-06-23T20:05:33.785Z,28
2017-06-23T20:06:55.356Z,24
2017-06-23T20:08:18.167Z,24
2017-06-23T20:09:40.643Z,20
2017-06-23T20:11:03.144Z,20
2017-06-23T20:12:25.625Z,20
2017-06-23T20:13:48.165Z,16
2017-06-23T20:15:10.326Z,12
2017-06-23T20:16:33.001Z,8
2017-06-23T20:17:55.487Z,8
2017-06-23T20:19:17.924Z,4
2017-06-23T20:20:40.430Z,4
2017-06-23T20:22:02.276Z,4
2017-06-23T20:23:24.157Z,4
2017-06-23T20:24:46.687Z,4
2017-06-23T20:26:09.208Z,4
2017-06-23T20:27:31.853Z,4
2017-06-23T20:28:54.331Z,4
2017-06-23T20:30:16.804Z,4
2017-06-23T20:31:38.317Z,4
2017-06-23T20:33:00.183Z,0
2017-06-23T20:34:22.036Z,0
2017-06-23T20:35:44.776Z,0
2017-06-23T20:37:06.934Z,0
2017-06-23T20:38:29.185Z,0
2017-06-23T20:39:51.397Z,0
2017-06-23T20:41:13.579Z,0
2017-06-23T20:42:36.154Z,0
2017-06-23T20:43:58.304Z,0
2017-06-23T20:45:20.539Z,0
2017-06-23T20:46:42.805Z,0
2017-06-23T20:48:05.084Z,0
2017-06-23T20:49:27.258Z,0
2017-06-23T20:50:49.108Z,0
2017-06-23T20:52:11.893Z,0
2017-06-23T20:53:33.802Z,0
2017-06-23T20:54:55.964Z,0
2017-06-23T20:56:18.172Z,0
2017-06-23T20:57:40.265Z,0
2017-06-23T20:59:02.724Z,0
2017-06-23T21:00:25.270Z,0
2017-06-23T21:01:47.114Z,0
2017-06-23T21:03:09.565Z,0
2017-06-23T21:04:32.063Z,0
2017-06-23T21:05:54.633Z,0
2017-06-23T21:07:16.561Z,0
2017-06-23T21:08:38.382Z,0
2017-06-23T21:10:00.924Z,0
2017-06-23T21:11:23.067Z,0
2017-06-23T21:12:45.551Z,0
2017-06-23T21:14:07.964Z,0
2017-06-23T21:15:29.641Z,0
2017-06-23T21:16:51.821Z,0
2017-06-23T21:18:14.265Z,0
2017-06-23T21:19:36.992Z,0
2017-06-23T21:20:59.161Z,0
2017-06-23T21:22:21.582Z,0
2017-06-23T21:23:43.742Z,0
2017-06-23T21:25:06.711Z,0
2017-06-23T21:26:29.025Z,0
2017-06-23T21:27:51.159Z,0
2017-06-23T21:29:13.329Z,0
2017-06-23T21:30:36.188Z,0
2017-06-23T21:31:58.311Z,0
2017-06-23T21:33:20.506Z,0
2017-06-23T21:34:42.974Z,0
2017-06-23T21:36:05.228Z,0
2017-06-23T21:37:26.785Z,0
2017-06-23T21:38:48.693Z,0
2017-06-23T21:40:11.176Z,0
2017-06-23T21:41:33.598Z,0
2017-06-23T21:42:56.111Z,0
2017-06-23T21:44:18.283Z,0
2017-06-23T21:45:40.492Z,0
2017-06-23T21:47:03.214Z,0
2017-06-23T21:48:25.675Z,0
2017-06-23T21:49:48.126Z,0
2017-06-23T21:51:10.271Z,0
2017-06-23T21:52:32.965Z,0
2017-06-23T21:53:55.086Z,0
2017-06-23T21:55:16.959Z,0
2017-06-23T21:56:39.096Z,0
2017-06-23T21:58:01.216Z,0
2017-06-23T21:59:23.215Z,0
2017-06-23T22:00:45.682Z,0
2017-06-23T22:02:07.825Z,0
2017-06-23T22:03:30.227Z,0
2017-06-23T22:04:52.381Z,0
2017-06-23T22:06:14.843Z,0
2017-06-23T22:07:37.053Z,0
2017-06-23T22:08:59.804Z,0
2017-06-23T22:10:22.260Z,0
2017-06-23T22:11:44.174Z,0
2017-06-23T22:13:06.154Z,0
2017-06-23T22:14:28.536Z,0
2017-06-23T22:15:50.701Z,0
2017-06-23T22:17:12.529Z,0
2017-06-23T22:18:34.382Z,0
2017-06-23T22:19:56.479Z,0
2017-06-23T22:21:18.798Z,0
2017-06-23T22:22:40.686Z,0
2017-06-23T22:24:02.913Z,0
2017-06-23T22:25:25.486Z,0
2017-06-23T22:26:47.625Z,0
2017-06-23T22:28:10.099Z,0
2017-06-23T22:29:31.954Z,0
2017-06-23T22:30:54.414Z,0
2017-06-23T22:32:16.563Z,0
2017-06-23T22:33:38.717Z,0
2017-06-23T22:35:00.242Z,0
2017-06-23T22:36:22.437Z,0
2017-06-23T22:37:44.894Z,0
2017-06-23T22:39:07.157Z,0
2017-06-23T22:40:29.293Z,0
2017-06-23T22:41:51.703Z,0
2017-06-23T22:43:14.144Z,0
2017-06-23T22:44:36.394Z,0
2017-06-23T22:45:58.294Z,0
2017-06-23T22:47:20.466Z,0
2017-06-23T22:48:42.685Z,0
2017-06-23T22:50:04.835Z,0
2017-06-23T22:51:27.001Z,0
2017-06-23T22:52:48.813Z,0
2017-06-23T22:54:11.271Z,0
2017-06-23T22:55:33.104Z,0
2017-06-23T22:56:55.573Z,0
2017-06-23T22:58:17.371Z,0
2017-06-23T22:59:38.877Z,0
2017-06-23T23:01:01.092Z,0
2017-06-23T23:02:22.591Z,0
2017-06-23T23:03:45.052Z,0
2017-06-23T23:05:07.358Z,0
2017-06-23T23:06:29.483Z,0
2017-06-23T23:07:51.310Z,0
2017-06-23T23:09:13.179Z,0
2017-06-23T23:10:35.310Z,0
2017-06-23T23:11:57.421Z,0
2017-06-23T23:13:19.473Z,0
2017-06-23T23:14:42.283Z,0
2017-06-23T23:16:04.713Z,0
2017-06-23T23:17:26.213Z,0
2017-06-23T23:18:48.639Z,0
2017-06-23T23:20:11.463Z,0
2017-06-23T23:21:33.312Z,0
2017-06-23T23:22:54.812Z,0
2017-06-23T23:24:16.627Z,0
2017-06-23T23:25:39.102Z,0
2017-06-23T23:27:00.910Z,0
2017-06-23T23:28:23.343Z,0
2017-06-23T23:29:45.128Z,0
2017-06-23T23:31:07.623Z,0
2017-06-23T23:32:30.046Z,0
2017-06-23T23:33:52.543Z,0
2017-06-23T23:35:14.164Z,0
2017-06-23T23:36:36.594Z,0
2017-06-23T23:37:58.493Z,0
2017-06-23T23:39:20.654Z,0
2017-06-23T23:40:42.778Z,0
2017-06-23T23:42:05.204Z,0
2017-06-23T23:43:27.394Z,0
2017-06-23T23:44:49.547Z,0
2017-06-23T23:46:10.810Z,0
2017-06-23T23:47:32.923Z,0
2017-06-23T23:48:55.052Z,0
2017-06-23T23:50:17.008Z,0
2017-06-23T23:51:39.585Z,0
2017-06-23T23:53:02.402Z,0
2017-06-23T23:54:23.581Z,0
2017-06-23T23:55:45.160Z,0
2017-06-23T23:57:07.296Z,0
2017-06-23T23:58:30.195Z,0
2017-06-23T23:59:52.303Z,0
